Time;durP1;ratioP1;P1;durP2;ratioP2;P2;SDS_P1;SDS_P2;PMS_P1;PMS_P2;Temp;Humidity;BMP_temperature;BMP_pressure;BME280_temperature;BME280_humidity;BME280_pressure;Samples;Min_cycle;Max_cycle;Signal;HPM_P1;HPM_P2
2022/11/09 00:00:05;;;;;;;7.78;2.42;;;13.30;99.90;;;;;;5136718;27;20526;-51
2022/11/09 00:02:31;;;;;;;8.02;2.50;;;13.30;99.90;;;;;;5132036;27;20039;-48
2022/11/09 00:04:56;;;;;;;7.78;2.45;;;13.30;99.90;;;;;;5132164;27;20504;-50
2022/11/09 00:07:22;;;;;;;9.60;2.60;;;13.30;99.90;;;;;;5147136;27;20050;-52
2022/11/09 00:09:48;;;;;;;9.73;2.30;;;13.20;99.90;;;;;;5134642;27;20686;-51
2022/11/09 00:12:13;;;;;;;9.25;2.50;;;13.30;99.90;;;;;;5138186;27;20039;-49
2022/11/09 00:14:39;;;;;;;6.43;2.30;;;13.20;99.90;;;;;;5131796;27;20027;-50
2022/11/09 00:17:05;;;;;;;7.97;2.67;;;13.20;99.90;;;;;;5150500;27;20060;-51
2022/11/09 00:19:30;;;;;;;7.68;2.20;;;13.20;99.90;;;;;;5152280;27;20389;-49
2022/11/09 00:21:56;;;;;;;7.25;2.30;;;13.10;99.90;;;;;;5144665;27;20029;-50
2022/11/09 00:24:22;;;;;;;8.63;2.53;;;13.20;99.90;;;;;;5135780;27;20039;-51
2022/11/09 00:26:48;;;;;;;10.23;2.40;;;13.20;99.90;;;;;;5132101;27;20047;-51
2022/11/09 00:29:13;;;;;;;7.63;2.47;;;13.10;99.90;;;;;;5132047;27;20039;-50
2022/11/09 00:31:39;;;;;;;9.82;2.60;;;13.10;99.90;;;;;;5131325;27;20374;-50
2022/11/09 00:34:05;;;;;;;8.95;2.50;;;13.20;99.90;;;;;;5131348;27;20046;-51
2022/11/09 00:36:30;;;;;;;6.35;1.98;;;13.30;99.90;;;;;;5127094;27;20091;-53
2022/11/09 00:38:58;;;;;;;9.38;2.47;;;13.30;99.90;;;;;;5132013;27;20062;-48
2022/11/09 00:41:25;;;;;;;8.68;2.05;;;13.20;99.90;;;;;;5145241;27;20146;-48
2022/11/09 00:43:51;;;;;;;10.20;2.50;;;13.10;99.90;;;;;;5133819;27;20066;-53
2022/11/09 00:46:20;;;;;;;7.93;2.47;;;13.10;99.90;;;;;;5119808;27;20050;-49
2022/11/09 00:48:46;;;;;;;8.60;2.00;;;13.20;99.90;;;;;;5116979;27;20394;-52
2022/11/09 00:51:12;;;;;;;8.05;2.20;;;13.20;99.90;;;;;;5121009;27;20057;-48
2022/11/09 00:53:38;;;;;;;7.13;2.38;;;13.20;99.90;;;;;;5135996;27;20039;-49
2022/11/09 00:56:05;;;;;;;9.57;2.78;;;13.10;99.90;;;;;;5135442;27;20035;-53
2022/11/09 00:58:34;;;;;;;7.65;2.17;;;13.10;99.90;;;;;;5137720;27;20035;-52
2022/11/09 01:01:06;;;;;;;14.68;2.55;;;13.10;99.90;;;;;;5140626;27;20039;-51
2022/11/09 01:03:31;;;;;;;12.05;2.85;;;13.10;99.90;;;;;;5136416;27;20050;-50
2022/11/09 01:06:00;;;;;;;6.97;1.95;;;13.10;99.90;;;;;;5134883;27;20096;-52
2022/11/09 01:08:26;;;;;;;7.22;2.22;;;13.20;99.90;;;;;;5136309;27;20039;-47
2022/11/09 01:10:51;;;;;;;10.40;2.63;;;13.20;99.90;;;;;;5146342;27;20038;-49
2022/11/09 01:13:18;;;;;;;7.60;2.50;;;13.20;99.90;;;;;;5135841;27;20390;-49
2022/11/09 01:15:46;;;;;;;11.02;2.55;;;13.20;99.90;;;;;;5136205;27;20517;-47
2022/11/09 01:18:13;;;;;;;7.15;2.08;;;13.10;99.90;;;;;;5133857;27;20100;-48
2022/11/09 01:20:40;;;;;;;7.32;2.08;;;13.40;99.90;;;;;;5139459;27;20039;-52
2022/11/09 01:23:06;;;;;;;7.30;2.20;;;13.00;99.90;;;;;;5136118;27;20031;-48
2022/11/09 01:25:32;;;;;;;7.72;2.33;;;13.00;99.90;;;;;;5134883;27;20038;-51
2022/11/09 01:28:01;;;;;;;6.72;2.30;;;13.00;99.90;;;;;;5139721;27;20050;-50
2022/11/09 01:30:27;;;;;;;5.22;2.28;;;12.80;99.90;;;;;;5134940;27;20114;-49
2022/11/09 01:32:52;;;;;;;7.22;2.30;;;12.80;99.90;;;;;;5136254;27;20445;-52
2022/11/09 01:35:18;;;;;;;6.60;2.60;;;12.60;99.90;;;;;;5134906;27;20039;-52
2022/11/09 01:37:44;;;;;;;7.32;2.30;;;12.60;99.90;;;;;;5099917;27;20039;-50
2022/11/09 01:40:10;;;;;;;5.68;2.28;;;12.50;99.90;;;;;;5135115;27;20027;-51
2022/11/09 01:42:36;;;;;;;9.23;2.60;;;12.50;99.90;;;;;;5136552;27;20035;-48
2022/11/09 01:45:17;;;;;;;7.22;2.40;;;12.40;99.90;;;;;;5116839;27;20046;-51
2022/11/09 01:48:14;;;;;;;8.32;2.30;;;12.40;99.90;;;;;;5134032;27;20451;-51
2022/11/09 01:50:53;;;;;;;8.13;2.45;;;12.40;99.90;;;;;;5125756;27;20123;-47
2022/11/09 01:53:23;;;;;;;8.32;1.90;;;12.40;99.90;;;;;;5134463;27;20039;-49
2022/11/09 01:55:53;;;;;;;10.57;2.70;;;12.50;99.90;;;;;;5133041;27;20068;-49
2022/11/09 01:58:31;;;;;;;9.43;1.98;;;12.60;99.90;;;;;;5134677;27;20031;-49
2022/11/09 02:00:59;;;;;;;8.45;2.40;;;12.50;99.90;;;;;;5134145;27;20039;-49
2022/11/09 02:03:39;;;;;;;7.43;2.10;;;12.50;99.90;;;;;;5135900;27;20046;-48
2022/11/09 02:06:08;;;;;;;8.10;2.40;;;12.50;99.90;;;;;;5134721;27;20035;-52
2022/11/09 02:08:35;;;;;;;9.63;2.38;;;12.40;99.90;;;;;;5135324;27;20042;-52
2022/11/09 02:11:08;;;;;;;6.85;2.15;;;12.50;99.90;;;;;;5115993;27;20095;-50
2022/11/09 02:13:38;;;;;;;9.35;1.98;;;12.40;99.90;;;;;;5116582;27;20038;-51
2022/11/09 02:16:05;;;;;;;8.95;2.28;;;12.50;99.90;;;;;;5133956;27;20509;-52
2022/11/09 02:18:33;;;;;;;9.70;2.10;;;12.30;99.90;;;;;;5135311;27;20482;-49
2022/11/09 02:20:58;;;;;;;8.10;2.47;;;12.40;99.90;;;;;;5132456;27;20176;-53
2022/11/09 02:23:28;;;;;;;10.68;2.35;;;12.40;99.90;;;;;;5132619;27;20114;-50
2022/11/09 02:26:26;;;;;;;8.50;1.92;;;12.30;99.90;;;;;;5132092;27;20038;-48
2022/11/09 02:28:54;;;;;;;8.95;1.95;;;12.30;99.90;;;;;;5127037;27;20043;-51
2022/11/09 02:31:24;;;;;;;10.13;2.00;;;12.30;99.90;;;;;;5138039;27;20114;-50
2022/11/09 02:33:49;;;;;;;9.98;2.17;;;12.40;99.90;;;;;;5141672;27;20034;-51
2022/11/09 02:36:15;;;;;;;9.48;2.10;;;12.30;99.90;;;;;;5128145;27;20032;-50
2022/11/09 02:38:41;;;;;;;9.88;2.78;;;12.30;99.90;;;;;;5127411;27;20042;-49
2022/11/09 02:41:08;;;;;;;9.07;1.90;;;12.40;99.90;;;;;;5133639;27;20172;-50
2022/11/09 02:43:35;;;;;;;12.80;2.20;;;12.30;99.90;;;;;;5143669;27;20052;-50
2022/11/09 02:46:01;;;;;;;8.38;1.90;;;12.30;99.90;;;;;;5135251;27;20502;-51
2022/11/09 02:48:27;;;;;;;9.10;2.10;;;12.30;99.90;;;;;;5115978;27;20482;-52
2022/11/09 02:50:53;;;;;;;8.23;2.00;;;12.30;99.90;;;;;;5132806;27;20055;-51
2022/11/09 02:53:18;;;;;;;11.95;2.03;;;12.30;99.90;;;;;;5134301;27;20043;-51
2022/11/09 02:55:44;;;;;;;10.25;2.50;;;12.30;99.90;;;;;;5133492;27;20470;-53
2022/11/09 02:58:10;;;;;;;12.13;2.30;;;12.30;99.90;;;;;;5133164;27;20031;-47
2022/11/09 03:00:35;;;;;;;8.88;2.40;;;12.30;99.90;;;;;;5131750;27;20072;-47
2022/11/09 03:03:02;;;;;;;8.77;1.63;;;12.30;99.90;;;;;;5132824;27;20069;-49
2022/11/09 03:05:28;;;;;;;8.63;2.28;;;12.30;99.90;;;;;;5118994;27;20081;-46
2022/11/09 03:07:53;;;;;;;12.65;1.98;;;12.30;99.90;;;;;;5134222;27;20067;-51
2022/11/09 03:10:19;;;;;;;12.02;2.25;;;12.20;99.90;;;;;;5135408;27;20043;-49
2022/11/09 03:12:45;;;;;;;8.48;1.85;;;12.10;99.90;;;;;;5132819;27;20121;-51
2022/11/09 03:15:10;;;;;;;10.43;2.08;;;12.10;99.90;;;;;;5139499;27;20070;-51
2022/11/09 03:17:36;;;;;;;9.80;2.83;;;12.10;99.90;;;;;;5138993;27;20083;-53
2022/11/09 03:20:02;;;;;;;11.15;2.10;;;11.90;99.90;;;;;;5133879;27;20035;-52
2022/11/09 03:22:28;;;;;;;7.63;2.25;;;11.90;99.90;;;;;;5132987;27;20039;-49
2022/11/09 03:24:54;;;;;;;9.30;2.33;;;11.80;99.90;;;;;;5134147;27;20043;-52
2022/11/09 03:27:19;;;;;;;7.30;2.13;;;11.80;99.90;;;;;;5132660;27;20050;-51
2022/11/09 03:29:45;;;;;;;7.80;1.90;;;11.80;99.90;;;;;;5122770;27;20030;-49
2022/11/09 03:32:11;;;;;;;6.47;2.17;;;11.70;99.90;;;;;;5131278;27;20113;-50
2022/11/09 03:34:36;;;;;;;10.48;2.30;;;11.70;99.90;;;;;;5131654;27;20071;-49
2022/11/09 03:37:02;;;;;;;9.25;2.47;;;11.70;99.90;;;;;;5145102;27;21613;-52
2022/11/09 03:39:28;;;;;;;10.30;2.25;;;11.70;99.90;;;;;;5139029;27;20035;-52
2022/11/09 03:41:54;;;;;;;11.02;2.67;;;11.70;99.90;;;;;;5137268;27;20079;-50
2022/11/09 03:44:19;;;;;;;9.50;2.47;;;11.60;99.90;;;;;;5138246;27;20404;-52
2022/11/09 03:46:46;;;;;;;9.27;2.25;;;11.70;99.90;;;;;;5137494;27;20099;-49
2022/11/09 03:49:12;;;;;;;11.20;2.45;;;11.60;99.90;;;;;;5132683;27;20046;-53
2022/11/09 03:51:38;;;;;;;7.80;2.25;;;11.70;99.90;;;;;;5112906;27;20047;-52
2022/11/09 03:54:04;;;;;;;10.90;2.50;;;11.70;99.90;;;;;;5141658;27;20086;-49
2022/11/09 03:56:29;;;;;;;8.32;2.10;;;11.60;99.90;;;;;;5113824;27;20168;-50
2022/11/09 03:58:55;;;;;;;7.90;2.03;;;11.70;99.90;;;;;;5110966;27;20498;-53
2022/11/09 04:01:21;;;;;;;12.32;2.28;;;11.70;99.90;;;;;;5133396;27;20038;-53
2022/11/09 04:03:46;;;;;;;12.80;2.63;;;11.70;99.90;;;;;;5131900;27;20031;-48
2022/11/09 04:06:12;;;;;;;6.70;2.28;;;11.60;99.90;;;;;;5134071;27;20043;-50
2022/11/09 04:08:38;;;;;;;7.85;2.40;;;11.60;99.90;;;;;;5130503;27;20097;-50
2022/11/09 04:11:04;;;;;;;7.28;2.47;;;11.70;99.90;;;;;;5129409;27;20045;-49
2022/11/09 04:13:29;;;;;;;7.95;2.20;;;11.70;99.90;;;;;;5131092;27;20168;-49
2022/11/09 04:15:55;;;;;;;7.75;2.22;;;11.70;99.90;;;;;;5130664;27;20038;-51
2022/11/09 04:18:20;;;;;;;8.07;1.90;;;11.60;99.90;;;;;;5130953;27;20035;-49
2022/11/09 04:20:46;;;;;;;8.98;2.10;;;11.60;99.90;;;;;;5130980;27;20035;-46
2022/11/09 04:23:12;;;;;;;11.80;2.15;;;11.60;99.90;;;;;;5131809;27;20067;-50
2022/11/09 04:25:39;;;;;;;7.35;2.67;;;11.70;99.90;;;;;;5131084;27;20122;-50
2022/11/09 04:28:07;;;;;;;10.98;2.65;;;11.60;99.90;;;;;;5131839;27;20067;-49
2022/11/09 04:30:34;;;;;;;10.20;2.92;;;11.70;99.90;;;;;;5129850;27;20119;-50
2022/11/09 04:33:01;;;;;;;8.27;2.20;;;11.60;99.90;;;;;;5134551;27;20043;-48
2022/11/09 04:35:28;;;;;;;9.00;2.10;;;11.60;99.90;;;;;;5132007;27;20042;-49
2022/11/09 04:38:05;;;;;;;8.30;2.53;;;11.50;99.90;;;;;;5131492;27;20118;-49
2022/11/09 04:40:33;;;;;;;7.53;2.00;;;11.50;99.90;;;;;;5132660;27;20091;-51
2022/11/09 04:42:59;;;;;;;8.68;2.05;;;11.50;99.90;;;;;;5141671;27;20050;-51
2022/11/09 04:45:25;;;;;;;12.00;2.22;;;11.50;99.90;;;;;;5135148;27;20099;-48
2022/11/09 04:47:57;;;;;;;10.10;2.28;;;11.40;99.90;;;;;;5137321;27;20042;-52
2022/11/09 04:50:23;;;;;;;7.90;1.90;;;11.50;99.90;;;;;;5129957;27;20072;-52
2022/11/09 04:52:49;;;;;;;8.63;1.85;;;11.50;99.90;;;;;;5129930;27;20047;-50
2022/11/09 04:55:14;;;;;;;10.43;2.47;;;11.50;99.90;;;;;;5129876;27;20544;-52
2022/11/09 04:57:40;;;;;;;8.25;1.88;;;11.50;99.90;;;;;;5138779;27;20117;-50
2022/11/09 05:00:06;;;;;;;8.07;1.80;;;11.60;99.90;;;;;;5129461;27;20028;-47
2022/11/09 05:02:32;;;;;;;8.45;1.80;;;11.60;99.90;;;;;;5140416;27;20103;-51
2022/11/09 05:04:58;;;;;;;9.98;2.60;;;11.60;99.90;;;;;;5151162;27;20031;-48
2022/11/09 05:07:23;;;;;;;11.77;2.25;;;11.60;99.90;;;;;;5137674;27;20484;-50
2022/11/09 05:09:49;;;;;;;11.27;2.15;;;11.60;99.90;;;;;;5130016;27;20093;-49
2022/11/09 05:12:14;;;;;;;9.02;1.90;;;11.70;99.90;;;;;;5130446;27;20478;-52
2022/11/09 05:14:40;;;;;;;11.10;2.10;;;11.60;99.90;;;;;;5130205;27;20046;-50
2022/11/09 05:17:07;;;;;;;9.52;2.15;;;11.70;99.90;;;;;;5111817;27;20050;-48
2022/11/09 05:19:33;;;;;;;10.13;2.70;;;11.60;99.90;;;;;;5130871;27;20139;-51
2022/11/09 05:23:57;;;;;;;10.60;2.60;;;11.70;99.90;;;;;;5130702;27;20105;-49
2022/11/09 05:24:45;;;;;;;6.18;1.92;;;11.50;99.90;;;;;;5130265;27;20061;-50
2022/11/09 05:27:11;;;;;;;9.40;2.58;;;11.60;99.90;;;;;;5135805;27;20035;-50
2022/11/09 05:29:36;;;;;;;7.60;1.50;;;11.50;99.90;;;;;;5131923;27;20172;-49
2022/11/09 05:32:02;;;;;;;6.88;1.80;;;11.60;99.90;;;;;;5135168;27;20035;-51
2022/11/09 05:34:28;;;;;;;10.40;1.90;;;11.60;99.90;;;;;;5145927;27;20658;-48
2022/11/09 05:36:53;;;;;;;6.63;1.95;;;11.50;99.90;;;;;;5137099;27;20495;-50
2022/11/09 05:39:19;;;;;;;8.77;1.95;;;11.60;99.90;;;;;;5122225;27;20580;-52
2022/11/09 05:41:45;;;;;;;9.30;2.33;;;11.40;99.90;;;;;;5136033;27;20032;-52
2022/11/09 05:44:10;;;;;;;8.27;1.95;;;11.40;99.90;;;;;;5133325;27;20120;-49
2022/11/09 05:46:36;;;;;;;10.85;2.28;;;11.50;99.90;;;;;;5134947;27;20031;-51
2022/11/09 05:49:02;;;;;;;11.40;2.00;;;11.40;99.90;;;;;;5115376;27;20066;-49
2022/11/09 05:51:27;;;;;;;14.80;2.50;;;11.40;99.90;;;;;;5133195;27;20075;-51
2022/11/09 05:53:53;;;;;;;7.78;1.75;;;11.40;99.90;;;;;;5134757;27;20498;-51
2022/11/09 05:56:19;;;;;;;8.00;1.88;;;11.40;99.90;;;;;;5135974;27;20047;-50
2022/11/09 05:58:44;;;;;;;10.43;1.80;;;11.30;99.90;;;;;;5138443;27;20039;-49
2022/11/09 06:01:15;;;;;;;8.55;2.00;;;11.30;99.90;;;;;;5135162;27;20030;-47
2022/11/09 06:03:42;;;;;;;9.98;1.88;;;11.30;99.90;;;;;;5114676;27;20518;-49
2022/11/09 06:06:11;;;;;;;10.35;1.85;;;11.60;99.90;;;;;;5125164;27;20134;-51
2022/11/09 06:08:36;;;;;;;10.65;2.05;;;11.50;99.90;;;;;;5115402;27;20042;-53
2022/11/09 06:11:05;;;;;;;8.95;1.85;;;11.40;99.90;;;;;;5133270;27;20390;-50
2022/11/09 06:13:31;;;;;;;8.40;1.52;;;11.50;99.90;;;;;;5133460;27;20035;-49
2022/11/09 06:15:59;;;;;;;8.43;1.98;;;11.50;99.90;;;;;;5134214;27;20043;-51
2022/11/09 06:18:26;;;;;;;12.93;2.20;;;11.60;99.90;;;;;;5134086;27;20148;-49
2022/11/09 06:20:57;;;;;;;9.48;1.65;;;11.50;99.90;;;;;;5133815;27;20031;-51
2022/11/09 06:23:28;;;;;;;9.73;2.03;;;11.50;99.90;;;;;;5133015;27;20470;-51
2022/11/09 06:25:58;;;;;;;9.00;2.08;;;11.60;99.90;;;;;;5135968;27;20050;-49
2022/11/09 06:28:24;;;;;;;14.07;2.25;;;11.50;99.90;;;;;;5137409;27;20041;-49
2022/11/09 06:30:50;;;;;;;9.55;1.90;;;11.50;99.90;;;;;;5151696;27;20043;-49
2022/11/09 06:33:16;;;;;;;12.38;2.42;;;11.50;99.90;;;;;;5134095;27;20039;-49
2022/11/09 06:35:42;;;;;;;9.20;1.83;;;11.50;99.90;;;;;;5132736;27;20035;-47
2022/11/09 06:38:09;;;;;;;10.05;2.20;;;11.40;99.90;;;;;;5135540;27;20036;-50
2022/11/09 06:40:35;;;;;;;10.82;2.05;;;11.40;99.90;;;;;;5132685;27;20043;-48
2022/11/09 06:43:01;;;;;;;9.18;1.80;;;11.50;99.90;;;;;;5133070;27;20047;-52
2022/11/09 06:45:28;;;;;;;11.57;1.95;;;11.40;99.90;;;;;;5131709;27;20027;-50
2022/11/09 06:47:58;;;;;;;9.48;1.88;;;11.40;99.90;;;;;;5133145;27;20389;-51
2022/11/09 06:50:26;;;;;;;8.55;2.03;;;11.30;99.90;;;;;;5133855;27;20472;-50
2022/11/09 06:52:59;;;;;;;10.15;1.92;;;11.30;99.90;;;;;;5131760;27;20047;-50
2022/11/09 06:55:28;;;;;;;11.60;1.70;;;11.40;99.90;;;;;;5132201;27;20073;-52
2022/11/09 06:57:54;;;;;;;10.23;1.40;;;11.20;99.90;;;;;;5132222;27;20035;-50
2022/11/09 07:00:21;;;;;;;13.30;2.60;;;11.30;99.90;;;;;;5139886;27;20517;-50
2022/11/09 07:02:47;;;;;;;9.90;1.77;;;11.30;99.90;;;;;;5132841;27;20031;-50
2022/11/09 07:05:12;;;;;;;10.77;1.85;;;11.30;99.90;;;;;;5144068;27;20531;-51
2022/11/09 07:07:38;;;;;;;10.45;2.00;;;11.30;99.90;;;;;;5152402;27;20046;-50
2022/11/09 07:10:05;;;;;;;11.02;2.22;;;11.30;99.90;;;;;;5133666;27;20477;-51
2022/11/09 07:12:32;;;;;;;10.07;2.28;;;11.20;99.90;;;;;;5132725;27;20070;-47
2022/11/09 07:14:57;;;;;;;14.77;2.55;;;11.20;99.90;;;;;;5134799;27;20058;-49
2022/11/09 07:17:23;;;;;;;11.65;2.00;;;11.20;99.90;;;;;;5143101;27;20461;-52
2022/11/09 07:19:48;;;;;;;9.38;2.00;;;11.20;99.90;;;;;;5138391;27;20035;-49
2022/11/09 07:22:14;;;;;;;11.52;2.47;;;11.20;99.90;;;;;;5100464;27;20043;-49
2022/11/09 07:24:40;;;;;;;10.63;2.00;;;11.30;99.90;;;;;;5132877;27;20043;-48
2022/11/09 07:27:05;;;;;;;11.98;2.17;;;11.30;99.90;;;;;;5118529;27;20080;-48
2022/11/09 07:29:31;;;;;;;11.23;2.60;;;11.30;99.90;;;;;;5132383;27;20118;-49
2022/11/09 07:31:57;;;;;;;12.18;2.40;;;11.30;99.90;;;;;;5131309;27;20031;-49
2022/11/09 07:34:22;;;;;;;11.18;2.28;;;11.40;99.90;;;;;;5132354;27;20035;-48
2022/11/09 07:36:48;;;;;;;10.10;2.72;;;11.30;99.90;;;;;;5135684;27;20042;-50
2022/11/09 07:39:14;;;;;;;14.15;2.55;;;11.30;99.90;;;;;;5113287;27;20110;-51
2022/11/09 07:41:39;;;;;;;8.45;2.28;;;11.50;99.90;;;;;;5131222;27;20058;-50
2022/11/09 07:44:05;;;;;;;15.15;2.20;;;11.50;99.90;;;;;;5131926;27;20420;-49
2022/11/09 07:46:31;;;;;;;16.30;2.50;;;11.40;99.90;;;;;;5131431;27;20042;-49
2022/11/09 07:48:56;;;;;;;11.63;2.33;;;11.50;99.90;;;;;;5132043;27;20038;-51
2022/11/09 07:51:22;;;;;;;12.32;2.25;;;11.50;99.90;;;;;;5131390;27;20035;-51
2022/11/09 07:53:48;;;;;;;12.85;2.70;;;11.50;99.90;;;;;;5131725;27;20172;-48
2022/11/09 07:56:13;;;;;;;13.35;2.65;;;11.60;99.90;;;;;;5135496;27;20446;-48
2022/11/09 07:58:39;;;;;;;10.30;2.45;;;11.70;99.90;;;;;;5135046;27;20398;-51
2022/11/09 08:01:09;;;;;;;11.52;2.53;;;11.60;99.90;;;;;;5114320;27;20038;-49
2022/11/09 08:03:35;;;;;;;12.43;2.97;;;11.60;99.90;;;;;;5114573;27;20039;-48
2022/11/09 08:06:01;;;;;;;13.85;2.83;;;11.60;99.90;;;;;;5130599;27;20123;-48
2022/11/09 08:08:26;;;;;;;13.35;2.30;;;11.70;99.90;;;;;;5128895;27;20058;-48
2022/11/09 08:10:52;;;;;;;10.95;3.17;;;11.90;99.90;;;;;;5126887;27;20128;-52
2022/11/09 08:13:19;;;;;;;14.23;2.78;;;11.70;99.90;;;;;;5126814;27;20497;-51
2022/11/09 08:15:45;;;;;;;10.77;2.35;;;11.80;99.90;;;;;;5121281;27;20043;-50
2022/11/09 08:18:14;;;;;;;18.88;3.75;;;11.80;99.90;;;;;;5125047;27;20103;-49
2022/11/09 08:20:40;;;;;;;12.82;2.92;;;11.80;99.90;;;;;;5113327;27;20039;-49
2022/11/09 08:23:05;;;;;;;9.65;2.83;;;11.80;99.90;;;;;;5125289;27;20042;-50
2022/11/09 08:25:33;;;;;;;13.70;3.30;;;12.00;99.90;;;;;;5123253;27;20031;-49
2022/11/09 08:27:59;;;;;;;14.90;3.05;;;11.90;99.90;;;;;;5128635;27;20354;-50
2022/11/09 08:30:25;;;;;;;13.88;2.45;;;12.00;99.90;;;;;;5106631;27;20046;-51
2022/11/09 08:32:51;;;;;;;12.00;2.42;;;12.10;99.90;;;;;;5123006;27;20066;-49
2022/11/09 08:35:20;;;;;;;15.02;2.75;;;12.00;99.90;;;;;;5121169;27;20040;-50
2022/11/09 08:37:47;;;;;;;10.80;3.20;;;12.10;99.90;;;;;;5127931;27;21229;-49
2022/11/09 08:40:15;;;;;;;11.65;2.55;;;12.10;99.90;;;;;;5125752;27;20031;-47
2022/11/09 08:42:40;;;;;;;16.23;2.70;;;12.20;99.90;;;;;;5125353;27;20402;-49
2022/11/09 08:45:07;;;;;;;13.30;3.25;;;12.20;99.90;;;;;;5124289;27;20039;-51
2022/11/09 08:47:33;;;;;;;12.07;3.45;;;12.40;99.90;;;;;;5120969;27;20076;-51
2022/11/09 08:49:59;;;;;;;12.63;2.60;;;12.40;99.90;;;;;;5129702;27;20035;-50
2022/11/09 08:52:25;;;;;;;12.32;3.47;;;12.50;99.90;;;;;;5127054;27;20056;-49
2022/11/09 08:54:51;;;;;;;14.15;2.60;;;12.40;99.90;;;;;;5107369;27;20079;-51
2022/11/09 08:57:18;;;;;;;11.20;3.40;;;12.50;99.90;;;;;;5122236;27;20035;-51
2022/11/09 08:59:44;;;;;;;11.93;2.90;;;12.50;99.90;;;;;;5127771;27;20132;-48
2022/11/09 09:02:11;;;;;;;12.43;3.35;;;12.50;99.90;;;;;;5126256;27;20032;-51
2022/11/09 09:04:37;;;;;;;13.95;3.03;;;12.50;99.90;;;;;;5126348;27;20516;-49
2022/11/09 09:07:02;;;;;;;13.85;3.92;;;12.60;99.90;;;;;;5125942;27;20035;-50
2022/11/09 09:09:28;;;;;;;14.98;3.30;;;12.60;99.90;;;;;;5130170;27;20039;-50
2022/11/09 09:11:54;;;;;;;11.65;4.18;;;12.70;99.90;;;;;;5125966;27;20063;-51
2022/11/09 09:14:19;;;;;;;14.45;3.22;;;12.90;99.90;;;;;;5108832;27;20125;-49
2022/11/09 09:16:45;;;;;;;11.20;3.13;;;12.90;99.90;;;;;;5125986;27;20020;-50
2022/11/09 09:19:11;;;;;;;12.82;3.97;;;12.90;99.90;;;;;;5107031;27;20255;-52
2022/11/09 09:21:36;;;;;;;12.13;3.50;;;13.00;99.90;;;;;;5125807;27;20031;-50
2022/11/09 09:24:02;;;;;;;12.55;3.47;;;13.10;99.90;;;;;;5125966;27;20083;-51
2022/11/09 09:26:28;;;;;;;16.65;4.20;;;13.10;99.90;;;;;;5126965;27;20185;-50
2022/11/09 09:28:54;;;;;;;11.93;3.42;;;13.10;99.90;;;;;;5130292;27;20367;-49
2022/11/09 09:31:20;;;;;;;11.95;3.00;;;13.30;99.90;;;;;;5128956;27;20114;-52
2022/11/09 09:33:46;;;;;;;12.30;3.05;;;13.20;99.90;;;;;;5129431;27;20043;-50
2022/11/09 09:36:20;;;;;;;10.18;3.20;;;13.10;99.90;;;;;;5125346;27;20191;-51
2022/11/09 09:38:50;;;;;;;13.10;3.45;;;13.10;99.90;;;;;;5123048;27;20824;-53
2022/11/09 09:41:40;;;;;;;13.32;3.70;;;13.10;99.90;;;;;;5119176;27;20043;-50
2022/11/09 09:44:21;;;;;;;12.95;2.92;;;13.00;99.90;;;;;;5098482;27;20031;-48
2022/11/09 09:46:57;;;;;;;13.10;3.40;;;13.10;99.90;;;;;;5127064;27;20171;-52
2022/11/09 09:49:30;;;;;;;12.02;3.38;;;13.10;99.90;;;;;;5125301;27;20027;-49
2022/11/09 09:52:18;;;;;;;15.00;3.42;;;13.20;99.90;;;;;;5124298;27;20035;-50
2022/11/09 09:54:52;;;;;;;17.75;4.72;;;13.30;99.90;;;;;;5107609;27;20047;-51
2022/11/09 09:57:20;;;;;;;11.60;3.22;;;13.40;99.90;;;;;;5126198;27;20078;-49
2022/11/09 09:59:51;;;;;;;16.17;3.40;;;13.50;99.90;;;;;;5123762;27;20030;-47
2022/11/09 10:02:24;;;;;;;12.98;3.45;;;13.70;99.90;;;;;;5124420;27;20070;-49
2022/11/09 10:04:52;;;;;;;11.48;3.10;;;13.80;99.90;;;;;;5128440;27;20423;-49
2022/11/09 10:07:25;;;;;;;10.75;3.60;;;13.80;99.90;;;;;;5124839;27;20630;-49
2022/11/09 10:10:29;;;;;;;15.32;3.63;;;13.90;99.90;;;;;;5103673;27;20036;-48
2022/11/09 10:13:07;;;;;;;14.43;3.80;;;14.00;99.90;;;;;;5091976;27;20054;-48
2022/11/09 10:15:57;;;;;;;14.27;3.38;;;13.90;99.90;;;;;;5126868;27;20111;-49
2022/11/09 10:18:29;;;;;;;12.98;3.88;;;13.90;99.90;;;;;;5127737;27;20413;-50
2022/11/09 10:21:03;;;;;;;11.35;3.50;;;13.80;99.90;;;;;;5122928;27;20078;-48
2022/11/09 10:24:14;;;;;;;11.18;3.38;;;13.80;99.90;;;;;;5125232;27;20047;-49
2022/11/09 10:26:45;;;;;;;11.57;3.45;;;13.60;99.90;;;;;;5123285;27;20050;-50
2022/11/09 10:29:21;;;;;;;11.50;4.07;;;13.60;99.90;;;;;;5106725;27;20118;-48
2022/11/09 10:31:50;;;;;;;13.18;3.50;;;13.60;99.90;;;;;;5124868;27;20027;-49
2022/11/09 10:34:28;;;;;;;15.13;3.53;;;13.70;99.90;;;;;;5126517;27;20104;-49
2022/11/09 10:37:07;;;;;;;12.68;3.90;;;13.50;99.90;;;;;;5132057;27;20533;-51
2022/11/09 10:39:40;;;;;;;11.65;3.47;;;13.70;99.90;;;;;;5133081;27;20043;-48
2022/11/09 10:42:09;;;;;;;10.13;3.15;;;13.90;99.90;;;;;;5130002;27;20043;-47
2022/11/09 10:44:35;;;;;;;9.85;3.20;;;14.10;99.90;;;;;;5109246;27;20043;-49
2022/11/09 10:47:13;;;;;;;15.23;3.75;;;14.20;99.90;;;;;;5123534;27;20039;-50
2022/11/09 10:49:39;;;;;;;14.27;3.25;;;14.30;99.90;;;;;;5128116;27;20078;-48
2022/11/09 10:52:38;;;;;;;11.40;2.80;;;14.20;99.90;;;;;;5125658;27;20031;-50
2022/11/09 10:55:23;;;;;;;12.93;2.97;;;13.90;99.90;;;;;;5122499;27;20043;-52
2022/11/09 10:58:10;;;;;;;13.68;3.55;;;13.80;99.90;;;;;;5129920;27;20035;-48
2022/11/09 11:00:36;;;;;;;11.55;3.20;;;13.60;99.90;;;;;;5128593;27;20085;-52
2022/11/09 11:03:17;;;;;;;13.57;3.25;;;13.60;99.90;;;;;;5123723;27;20413;-50
2022/11/09 11:05:43;;;;;;;10.80;2.90;;;13.60;99.90;;;;;;5129854;27;20069;-47
2022/11/09 11:08:32;;;;;;;11.82;3.08;;;13.50;99.90;;;;;;5109415;27;20548;-50
2022/11/09 11:11:21;;;;;;;12.05;3.00;;;13.60;99.90;;;;;;5123382;27;20118;-49
2022/11/09 11:13:48;;;;;;;10.25;2.78;;;13.60;99.90;;;;;;5128358;27;20039;-50
2022/11/09 11:16:30;;;;;;;11.15;3.38;;;13.50;99.90;;;;;;5128563;27;20044;-52
2022/11/09 11:18:56;;;;;;;13.55;3.20;;;13.50;99.90;;;;;;5123008;27;20142;-49
2022/11/09 11:21:24;;;;;;;10.25;2.83;;;13.40;99.90;;;;;;5128580;27;20035;-51
2022/11/09 11:24:12;;;;;;;11.27;3.00;;;13.40;99.90;;;;;;5127165;27;20039;-48
2022/11/09 11:26:58;;;;;;;13.10;3.10;;;13.30;99.90;;;;;;5124163;27;20493;-48
2022/11/09 11:29:29;;;;;;;11.20;3.15;;;13.30;99.90;;;;;;5124769;27;20043;-48
2022/11/09 11:31:56;;;;;;;12.70;2.95;;;13.30;99.90;;;;;;5125843;27;20043;-49
2022/11/09 11:34:21;;;;;;;10.55;2.70;;;13.30;99.90;;;;;;5119674;27;20039;-49
2022/11/09 11:37:41;;;;;;;11.73;2.50;;;13.30;99.90;;;;;;5119756;27;20469;-49
2022/11/09 11:40:24;;;;;;;10.07;2.80;;;13.40;99.90;;;;;;5042893;28;20033;-48
2022/11/09 11:43:32;;;;;;;10.05;2.80;;;13.60;99.90;;;;;;5101608;27;20050;-52
2022/11/09 11:46:30;;;;;;;9.60;2.97;;;13.60;99.90;;;;;;5125017;27;20545;-50
2022/11/09 11:49:10;;;;;;;13.13;3.03;;;13.60;99.90;;;;;;5088421;27;20474;-48
2022/11/09 11:51:42;;;;;;;13.45;3.05;;;13.70;99.90;;;;;;5120665;27;20517;-49
2022/11/09 11:54:37;;;;;;;8.60;2.80;;;13.80;99.90;;;;;;5120436;27;20055;-47
2022/11/09 11:57:19;;;;;;;12.45;3.00;;;13.80;99.90;;;;;;5113389;27;20477;-52
2022/11/09 12:00:11;;;;;;;13.18;3.33;;;13.80;99.90;;;;;;5117921;27;20035;-49
2022/11/09 12:02:43;;;;;;;10.02;2.63;;;13.70;99.90;;;;;;5123600;27;20066;-52
2022/11/09 12:05:30;;;;;;;9.82;2.63;;;13.70;99.90;;;;;;5122273;27;20503;-54
2022/11/09 12:08:13;;;;;;;10.25;2.67;;;13.80;99.90;;;;;;5126871;27;20039;-49
2022/11/09 12:11:00;;;;;;;12.75;2.80;;;13.80;99.90;;;;;;5125146;27;21805;-48
2022/11/09 12:13:40;;;;;;;9.88;2.60;;;14.00;99.90;;;;;;5119826;27;20475;-49
2022/11/09 12:16:45;;;;;;;7.93;2.17;;;14.20;99.90;;;;;;5115673;27;20474;-51
2022/11/09 12:19:32;;;;;;;10.02;2.40;;;14.20;99.90;;;;;;5116868;27;20547;-47
2022/11/09 12:22:19;;;;;;;7.75;2.20;;;14.30;99.90;;;;;;5121222;27;20055;-47
2022/11/09 12:25:08;;;;;;;9.25;2.75;;;14.20;99.90;;;;;;5126657;27;20085;-48
2022/11/09 12:27:52;;;;;;;8.07;2.50;;;14.10;99.90;;;;;;5122082;27;20050;-47
2022/11/09 12:30:21;;;;;;;7.60;2.08;;;14.10;99.90;;;;;;5114718;27;20035;-48
2022/11/09 12:33:27;;;;;;;9.95;2.30;;;13.90;99.90;;;;;;5120761;27;20448;-48
2022/11/09 12:35:58;;;;;;;11.80;2.78;;;13.90;99.90;;;;;;5041611;28;20029;-49
2022/11/09 12:38:32;;;;;;;8.80;2.30;;;13.90;99.90;;;;;;5114603;27;20058;-48
2022/11/09 12:41:18;;;;;;;7.00;2.60;;;13.80;99.90;;;;;;5131137;27;20452;-48
2022/11/09 12:43:59;;;;;;;9.05;2.28;;;13.80;99.90;;;;;;5128062;27;20031;-50
2022/11/09 12:46:34;;;;;;;8.57;2.20;;;13.70;99.90;;;;;;5134150;27;20111;-48
2022/11/09 12:49:03;;;;;;;7.28;1.85;;;13.70;99.90;;;;;;5133017;27;20071;-48
2022/11/09 12:51:30;;;;;;;6.53;1.80;;;13.80;99.90;;;;;;5133402;27;20163;-49
2022/11/09 12:53:57;;;;;;;7.03;2.13;;;13.80;99.90;;;;;;5127894;27;20054;-47